createdAt,value
2018-06-29T00:00:49.816Z,1012.17
2018-06-29T00:01:49.695Z,1012.23
2018-06-29T00:02:49.690Z,1012.19
2018-06-29T00:03:49.677Z,1012.27
2018-06-29T00:04:49.666Z,1012.30
2018-06-29T00:05:49.653Z,1012.26
2018-06-29T00:06:49.664Z,1012.25
2018-06-29T00:07:49.622Z,1012.26
2018-06-29T00:08:49.615Z,1012.26
2018-06-29T00:09:49.593Z,1012.24
2018-06-29T00:10:49.590Z,1012.24
2018-06-29T00:11:49.570Z,1012.27
2018-06-29T00:12:49.561Z,1012.24
2018-06-29T00:13:49.548Z,1012.23
2018-06-29T00:14:49.539Z,1012.22
2018-06-29T00:15:49.517Z,1012.21
2018-06-29T00:16:49.511Z,1012.25
2018-06-29T00:17:49.640Z,1012.25
2018-06-29T00:18:49.481Z,1012.24
2018-06-29T00:19:49.470Z,1012.26
2018-06-29T00:20:49.470Z,1012.24
2018-06-29T00:21:49.442Z,1012.21
2018-06-29T00:22:49.431Z,1012.23
2018-06-29T00:23:49.421Z,1012.24
2018-06-29T00:24:49.423Z,1012.24
2018-06-29T00:25:49.396Z,1012.24
2018-06-29T00:26:49.389Z,1012.21
2018-06-29T00:27:49.370Z,1012.21
2018-06-29T00:28:49.360Z,1012.22
2018-06-29T00:29:49.345Z,1012.17
2018-06-29T00:30:49.327Z,1012.19
2018-06-29T00:31:49.321Z,1012.17
2018-06-29T00:32:49.310Z,1012.14
2018-06-29T00:33:49.297Z,1012.12
2018-06-29T00:34:49.278Z,1012.14
2018-06-29T00:35:49.274Z,1012.12
2018-06-29T00:36:49.257Z,1012.08
2018-06-29T00:37:49.238Z,1012.07
2018-06-29T00:38:49.234Z,1012.04
2018-06-29T00:39:49.216Z,1012.03
2018-06-29T00:40:49.208Z,1012.01
2018-06-29T00:41:49.190Z,1012.04
2018-06-29T00:42:49.180Z,1012.03
2018-06-29T00:43:49.177Z,1012.05
2018-06-29T00:44:49.149Z,1012.05
2018-06-29T00:45:49.147Z,1012.09
2018-06-29T00:46:49.132Z,1012.11
2018-06-29T00:47:49.124Z,1012.09
2018-06-29T00:48:49.104Z,1012.08
2018-06-29T00:49:49.084Z,1012.07
2018-06-29T00:50:49.090Z,1012.04
2018-06-29T00:51:49.065Z,1012.03
2018-06-29T00:52:49.045Z,1012.02
2018-06-29T00:53:49.048Z,1012.06
2018-06-29T00:54:49.025Z,1012.01
2018-06-29T00:55:49.016Z,1012.06
2018-06-29T00:56:49.017Z,1012.05
2018-06-29T00:57:48.992Z,1012.05
2018-06-29T00:58:49.010Z,1012.06
2018-06-29T00:59:48.959Z,1012.04
2018-06-29T01:00:48.949Z,1012.05
2018-06-29T01:01:48.928Z,1012.08
2018-06-29T01:02:48.920Z,1012.10
2018-06-29T01:03:48.909Z,1012.05
2018-06-29T01:04:48.903Z,1012.06
2018-06-29T01:05:48.883Z,1012.06
2018-06-29T01:06:48.870Z,1012.05
2018-06-29T01:07:48.860Z,1012.10
2018-06-29T01:08:48.856Z,1012.08
2018-06-29T01:09:48.826Z,1012.06
2018-06-29T01:10:48.819Z,1012.05
2018-06-29T01:11:48.806Z,1012.10
2018-06-29T01:12:48.787Z,1012.06
2018-06-29T01:13:48.773Z,1012.01
2018-06-29T01:14:48.762Z,1012.00
2018-06-29T01:15:48.749Z,1012.04
2018-06-29T01:16:48.739Z,1012.07
2018-06-29T01:17:48.729Z,1012.04
2018-06-29T01:18:48.708Z,1012.04
2018-06-29T01:19:48.700Z,1012.08
2018-06-29T01:20:48.685Z,1012.06
2018-06-29T01:21:48.673Z,1012.03
2018-06-29T01:22:48.657Z,1012.04
2018-06-29T01:23:48.662Z,1012.05
2018-06-29T01:24:48.640Z,1012.02
2018-06-29T01:25:48.616Z,1012.05
2018-06-29T01:26:48.619Z,1012.01
2018-06-29T01:27:48.588Z,1012.05
2018-06-29T01:28:48.585Z,1012.04
2018-06-29T01:29:48.560Z,1012.06
2018-06-29T01:30:48.582Z,1012.05
2018-06-29T01:31:48.538Z,1012.03
2018-06-29T01:32:48.522Z,1012.12
2018-06-29T01:33:48.509Z,1012.08
2018-06-29T01:34:48.498Z,1012.09
2018-06-29T01:35:48.488Z,1012.08
2018-06-29T01:36:48.476Z,1012.09
2018-06-29T01:37:48.460Z,1012.02
2018-06-29T01:38:48.461Z,1012.02
2018-06-29T01:39:48.435Z,1012.00
2018-06-29T01:40:48.419Z,1012.06
2018-06-29T01:41:48.404Z,1012.03
2018-06-29T01:42:48.388Z,1012.04
2018-06-29T01:43:48.384Z,1012.04
2018-06-29T01:44:48.372Z,1012.04
2018-06-29T01:45:48.389Z,1012.01
2018-06-29T01:46:48.340Z,1012.02
2018-06-29T01:47:48.328Z,1012.03
2018-06-29T01:48:48.321Z,1012.01
2018-06-29T01:49:48.306Z,1011.98
2018-06-29T01:50:48.279Z,1011.95
2018-06-29T01:51:48.274Z,1011.92
2018-06-29T01:52:48.260Z,1011.93
2018-06-29T01:53:48.253Z,1011.93
2018-06-29T01:54:48.233Z,1011.89
2018-06-29T01:55:48.220Z,1011.89
2018-06-29T01:56:48.204Z,1011.88
2018-06-29T01:57:48.197Z,1011.87
2018-06-29T01:58:48.179Z,1011.92
2018-06-29T01:59:48.170Z,1011.86
2018-06-29T02:00:48.158Z,1011.89
2018-06-29T02:01:48.132Z,1011.88
2018-06-29T02:02:48.127Z,1011.87
2018-06-29T02:03:48.115Z,1011.85
2018-06-29T02:04:48.111Z,1011.85
2018-06-29T02:05:48.089Z,1011.80
2018-06-29T02:06:48.073Z,1011.84
2018-06-29T02:07:48.056Z,1011.84
2018-06-29T02:08:48.054Z,1011.87
2018-06-29T02:09:48.035Z,1011.82
2018-06-29T02:10:48.016Z,1011.85
2018-06-29T02:11:48.005Z,1011.83
2018-06-29T02:12:47.987Z,1011.83
2018-06-29T02:13:47.993Z,1011.80
2018-06-29T02:14:47.961Z,1011.82
2018-06-29T02:15:47.951Z,1011.81
2018-06-29T02:16:47.936Z,1011.82
2018-06-29T02:17:47.917Z,1011.83
2018-06-29T02:18:47.927Z,1011.84
2018-06-29T02:19:47.915Z,1011.86
2018-06-29T02:20:47.884Z,1011.89
2018-06-29T02:21:47.866Z,1011.87
2018-06-29T02:22:47.852Z,1011.85
2018-06-29T02:23:47.844Z,1011.86
2018-06-29T02:24:47.832Z,1011.83
2018-06-29T02:25:47.814Z,1011.78
2018-06-29T02:26:47.797Z,1011.84
2018-06-29T02:27:47.783Z,1011.85
2018-06-29T02:28:47.828Z,1011.87
2018-06-29T02:29:47.763Z,1011.86
2018-06-29T02:30:47.852Z,1011.80
2018-06-29T02:31:47.729Z,1011.76
2018-06-29T02:32:47.716Z,1011.77
2018-06-29T02:33:47.703Z,1011.75
2018-06-29T02:34:47.698Z,1011.73
2018-06-29T02:35:47.678Z,1011.72
2018-06-29T02:36:47.664Z,1011.71
2018-06-29T02:37:47.645Z,1011.70
2018-06-29T02:38:47.632Z,1011.68
2018-06-29T02:39:47.620Z,1011.70
2018-06-29T02:40:47.612Z,1011.66
2018-06-29T02:41:47.593Z,1011.61
2018-06-29T02:42:47.577Z,1011.65
2018-06-29T02:43:47.570Z,1011.64
2018-06-29T02:44:47.561Z,1011.60
2018-06-29T02:45:47.537Z,1011.63
2018-06-29T02:46:47.534Z,1011.64
2018-06-29T02:47:47.508Z,1011.65
2018-06-29T02:48:47.501Z,1011.68
2018-06-29T02:49:47.494Z,1011.71
2018-06-29T02:50:47.468Z,1011.71
2018-06-29T02:51:47.458Z,1011.66
2018-06-29T02:52:47.455Z,1011.68
2018-06-29T02:53:47.428Z,1011.72
2018-06-29T02:54:47.420Z,1011.76
2018-06-29T02:55:47.406Z,1011.76
2018-06-29T02:56:47.388Z,1011.72
2018-06-29T02:57:47.374Z,1011.75
2018-06-29T02:58:47.354Z,1011.74
2018-06-29T02:59:47.345Z,1011.75
2018-06-29T03:00:47.369Z,1011.78
2018-06-29T03:01:47.320Z,1011.77
2018-06-29T03:02:47.308Z,1011.75
2018-06-29T03:03:47.357Z,1011.81
2018-06-29T03:04:47.275Z,1011.82
2018-06-29T03:05:47.265Z,1011.87
2018-06-29T03:06:47.244Z,1011.85
2018-06-29T03:07:47.236Z,1011.83
2018-06-29T03:08:47.233Z,1011.87
2018-06-29T03:09:47.220Z,1011.86
2018-06-29T03:10:47.190Z,1011.84
2018-06-29T03:11:47.181Z,1011.84
2018-06-29T03:12:47.168Z,1011.84
2018-06-29T03:13:47.151Z,1011.81
2018-06-29T03:14:47.133Z,1011.79
2018-06-29T03:15:47.123Z,1011.84
2018-06-29T03:16:47.119Z,1011.78
2018-06-29T03:17:47.142Z,1011.81
2018-06-29T03:18:47.096Z,1011.77
2018-06-29T03:19:47.063Z,1011.76
2018-06-29T03:20:47.054Z,1011.75
2018-06-29T03:21:47.039Z,1011.73
2018-06-29T03:22:47.028Z,1011.79
2018-06-29T03:23:47.006Z,1011.77
2018-06-29T03:24:47.000Z,1011.76
2018-06-29T03:25:46.980Z,1011.75
2018-06-29T03:26:46.973Z,1011.75
2018-06-29T03:27:46.954Z,1011.74
2018-06-29T03:28:46.947Z,1011.75
2018-06-29T03:29:46.923Z,1011.77
2018-06-29T03:30:46.918Z,1011.73
2018-06-29T03:31:46.894Z,1011.70
2018-06-29T03:32:46.888Z,1011.71
2018-06-29T03:33:46.910Z,1011.70
2018-06-29T03:34:46.881Z,1011.68
2018-06-29T03:35:46.845Z,1011.68
2018-06-29T03:36:46.828Z,1011.66
2018-06-29T03:37:46.816Z,1011.67
2018-06-29T03:38:46.806Z,1011.68
2018-06-29T03:39:46.790Z,1011.67
2018-06-29T03:40:46.799Z,1011.66
2018-06-29T03:41:46.760Z,1011.66
2018-06-29T03:42:46.754Z,1011.67
2018-06-29T03:43:46.733Z,1011.66
2018-06-29T03:44:46.721Z,1011.64
2018-06-29T03:45:46.707Z,1011.65
2018-06-29T03:46:46.691Z,1011.67
2018-06-29T03:47:46.687Z,1011.69
2018-06-29T03:48:46.668Z,1011.60
2018-06-29T03:49:46.645Z,1011.61
2018-06-29T03:50:46.637Z,1011.60
2018-06-29T03:51:46.616Z,1011.60
2018-06-29T03:52:46.610Z,1011.60
2018-06-29T03:53:46.593Z,1011.61
2018-06-29T03:54:46.574Z,1011.58
2018-06-29T03:55:46.558Z,1011.54
2018-06-29T03:56:46.540Z,1011.58
2018-06-29T03:57:46.542Z,1011.57
2018-06-29T03:58:46.519Z,1011.61
2018-06-29T03:59:46.501Z,1011.57
2018-06-29T04:00:46.504Z,1011.59
2018-06-29T04:01:46.473Z,1011.62
2018-06-29T04:02:46.464Z,1011.59
2018-06-29T04:03:46.457Z,1011.58
2018-06-29T04:04:46.430Z,1011.59
2018-06-29T04:05:46.417Z,1011.57
2018-06-29T04:06:46.406Z,1011.59
2018-06-29T04:07:46.396Z,1011.59
2018-06-29T04:08:46.375Z,1011.57
2018-06-29T04:09:46.360Z,1011.62
2018-06-29T04:10:46.358Z,1011.56
2018-06-29T04:11:46.336Z,1011.60
2018-06-29T04:12:46.314Z,1011.64
2018-06-29T04:13:46.303Z,1011.57
2018-06-29T04:14:46.311Z,1011.63
2018-06-29T04:15:46.274Z,1011.61
2018-06-29T04:16:46.273Z,1011.63
2018-06-29T04:17:46.260Z,1011.63
2018-06-29T04:18:46.231Z,1011.68
2018-06-29T04:19:46.220Z,1011.68
2018-06-29T04:20:46.203Z,1011.73
2018-06-29T04:21:46.194Z,1011.72
2018-06-29T04:22:46.176Z,1011.73
2018-06-29T04:23:46.158Z,1011.78
2018-06-29T04:24:46.154Z,1011.77
2018-06-29T04:25:46.136Z,1011.75
2018-06-29T04:26:46.118Z,1011.74
2018-06-29T04:27:46.103Z,1011.72
2018-06-29T04:28:46.137Z,1011.71
2018-06-29T04:29:46.098Z,1011.74
2018-06-29T04:30:46.060Z,1011.78
2018-06-29T04:31:46.065Z,1011.79
2018-06-29T04:32:46.077Z,1011.77
2018-06-29T04:33:46.016Z,1011.75
2018-06-29T04:34:46.005Z,1011.78
2018-06-29T04:35:45.992Z,1011.79
2018-06-29T04:36:45.979Z,1011.72
2018-06-29T04:37:45.963Z,1011.74
2018-06-29T04:38:45.943Z,1011.78
2018-06-29T04:39:45.940Z,1011.77
2018-06-29T04:40:45.928Z,1011.70
2018-06-29T04:41:45.899Z,1011.72
2018-06-29T04:42:45.942Z,1011.72
2018-06-29T04:43:45.877Z,1011.67
2018-06-29T04:44:45.867Z,1011.68
2018-06-29T04:45:45.855Z,1011.70
2018-06-29T04:46:45.833Z,1011.71
2018-06-29T04:47:45.822Z,1011.72
2018-06-29T04:48:45.808Z,1011.70
2018-06-29T04:49:45.794Z,1011.66
2018-06-29T04:50:45.780Z,1011.61
2018-06-29T04:51:45.770Z,1011.63
2018-06-29T04:52:45.786Z,1011.54
2018-06-29T04:53:45.747Z,1011.59
2018-06-29T04:54:45.725Z,1011.54
2018-06-29T04:55:45.715Z,1011.53
2018-06-29T04:56:45.690Z,1011.50
2018-06-29T04:57:45.684Z,1011.56
2018-06-29T04:58:45.668Z,1011.57
2018-06-29T04:59:45.656Z,1011.54
2018-06-29T05:00:45.647Z,1011.56
2018-06-29T05:01:45.641Z,1011.58
2018-06-29T05:02:45.650Z,1011.59
2018-06-29T05:03:45.608Z,1011.61
2018-06-29T05:04:45.595Z,1011.60
2018-06-29T05:05:45.576Z,1011.64
2018-06-29T05:06:45.583Z,1011.68
2018-06-29T05:07:45.565Z,1011.63
2018-06-29T05:08:45.544Z,1011.65
2018-06-29T05:09:45.520Z,1011.66
2018-06-29T05:10:45.548Z,1011.69
2018-06-29T05:11:45.505Z,1011.72
2018-06-29T05:12:45.525Z,1011.70
2018-06-29T05:13:45.467Z,1011.70
2018-06-29T05:14:45.496Z,1011.74
2018-06-29T05:15:45.466Z,1011.73
2018-06-29T05:16:45.459Z,1011.71
2018-06-29T05:17:45.411Z,1011.74
2018-06-29T05:18:45.454Z,1011.67
2018-06-29T05:19:45.387Z,1011.69
2018-06-29T05:20:45.447Z,1011.66
2018-06-29T05:21:45.358Z,1011.69
2018-06-29T05:22:45.338Z,1011.70
2018-06-29T05:23:45.373Z,1011.72
2018-06-29T05:24:45.325Z,1011.68
2018-06-29T05:25:45.327Z,1011.63
2018-06-29T05:26:45.294Z,1011.66
2018-06-29T05:27:45.301Z,1011.72
2018-06-29T05:28:45.336Z,1011.73
2018-06-29T05:29:45.239Z,1011.72
2018-06-29T05:30:45.239Z,1011.78
2018-06-29T05:31:45.244Z,1011.74
2018-06-29T05:32:45.229Z,1011.73
2018-06-29T05:33:45.198Z,1011.72
2018-06-29T05:34:45.184Z,1011.77
2018-06-29T05:35:45.165Z,1011.70
2018-06-29T05:36:45.175Z,1011.73
2018-06-29T05:37:45.159Z,1011.76
2018-06-29T05:38:45.121Z,1011.73
2018-06-29T05:39:45.141Z,1011.72
2018-06-29T05:40:45.109Z,1011.72
2018-06-29T05:41:45.191Z,1011.70
2018-06-29T05:42:45.159Z,1011.70
2018-06-29T05:43:45.094Z,1011.76
2018-06-29T05:44:45.070Z,1011.80
2018-06-29T05:45:45.056Z,1011.83
2018-06-29T05:46:45.001Z,1011.85
2018-06-29T05:47:45.074Z,1011.85
2018-06-29T05:48:44.993Z,1011.82
2018-06-29T05:49:44.987Z,1011.84
2018-06-29T05:50:44.985Z,1011.83
2018-06-29T05:51:44.966Z,1011.85
2018-06-29T05:52:44.940Z,1011.81
2018-06-29T05:53:44.975Z,1011.82
2018-06-29T05:54:44.943Z,1011.77
2018-06-29T05:55:44.971Z,1011.79
2018-06-29T05:56:44.986Z,1011.80
2018-06-29T05:57:44.879Z,1011.86
2018-06-29T05:58:44.881Z,1011.81
2018-06-29T05:59:44.886Z,1011.83
2018-06-29T06:00:44.812Z,1011.82
2018-06-29T06:01:44.812Z,1011.85
2018-06-29T06:02:44.829Z,1011.80
2018-06-29T06:03:44.782Z,1011.84
2018-06-29T06:04:44.867Z,1011.85
2018-06-29T06:05:44.772Z,1011.87
2018-06-29T06:06:44.754Z,1011.90
2018-06-29T06:07:44.757Z,1011.87
2018-06-29T06:08:44.756Z,1011.84
2018-06-29T06:09:44.734Z,1011.88
2018-06-29T06:10:44.688Z,1011.88
2018-06-29T06:11:44.694Z,1011.92
2018-06-29T06:12:44.818Z,1011.86
2018-06-29T06:13:44.676Z,1011.93
2018-06-29T06:14:44.636Z,1011.92
2018-06-29T06:15:44.634Z,1011.93
2018-06-29T06:16:44.633Z,1011.93
2018-06-29T06:17:44.664Z,1011.82
2018-06-29T06:18:44.578Z,1011.84
2018-06-29T06:19:44.575Z,1011.81
2018-06-29T06:20:44.571Z,1011.78
2018-06-29T06:21:44.574Z,1011.80
2018-06-29T06:22:44.569Z,1011.77
2018-06-29T06:23:44.575Z,1011.78
2018-06-29T06:24:44.534Z,1011.83
2018-06-29T06:25:44.541Z,1011.82
2018-06-29T06:26:44.513Z,1011.85
2018-06-29T06:27:44.485Z,1011.88
2018-06-29T06:28:44.484Z,1011.90
2018-06-29T06:29:44.471Z,1012.01
2018-06-29T06:30:44.433Z,1012.02
2018-06-29T06:31:44.434Z,1012.17
2018-06-29T06:32:44.429Z,1012.18
2018-06-29T06:33:44.600Z,1012.17
2018-06-29T06:34:44.382Z,1012.23
2018-06-29T06:35:44.396Z,1012.25
2018-06-29T06:36:44.405Z,1012.28
2018-06-29T06:37:44.477Z,1012.29
2018-06-29T06:38:44.327Z,1012.30
2018-06-29T06:39:44.335Z,1012.35
2018-06-29T06:40:44.339Z,1012.31
2018-06-29T06:41:44.374Z,1012.29
2018-06-29T06:42:44.308Z,1012.31
2018-06-29T06:43:44.271Z,1012.31
2018-06-29T06:44:44.268Z,1012.38
2018-06-29T06:45:44.270Z,1012.36
2018-06-29T06:46:44.295Z,1012.38
2018-06-29T06:47:44.256Z,1012.37
2018-06-29T06:48:44.274Z,1012.34
2018-06-29T06:49:44.226Z,1012.36
2018-06-29T06:50:44.237Z,1012.37
2018-06-29T06:51:44.241Z,1012.41
2018-06-29T06:52:44.203Z,1012.35
2018-06-29T06:53:44.263Z,1012.35
2018-06-29T06:54:44.183Z,1012.38
2018-06-29T06:55:44.191Z,1012.41
2018-06-29T06:56:44.148Z,1012.39
2018-06-29T06:57:44.136Z,1012.39
2018-06-29T06:58:44.155Z,1012.33
2018-06-29T06:59:44.216Z,1012.36
2018-06-29T07:00:44.165Z,1012.36
2018-06-29T07:01:44.136Z,1012.34
2018-06-29T07:02:44.116Z,1012.26
2018-06-29T07:03:44.113Z,1012.27
2018-06-29T07:04:44.119Z,1012.27
2018-06-29T07:05:44.088Z,1012.22
2018-06-29T07:06:44.083Z,1012.23
2018-06-29T07:07:44.071Z,1012.23
2018-06-29T07:08:44.089Z,1012.18
2018-06-29T07:09:44.050Z,1012.17
2018-06-29T07:10:44.051Z,1012.18
2018-06-29T07:11:44.068Z,1012.15
2018-06-29T07:12:44.091Z,1012.21
2018-06-29T07:13:44.062Z,1012.18
2018-06-29T07:14:44.035Z,1012.15
2018-06-29T07:15:44.017Z,1012.15
2018-06-29T07:16:44.048Z,1012.16
2018-06-29T07:17:44.027Z,1012.14
2018-06-29T07:18:43.996Z,1012.13
2018-06-29T07:19:44.035Z,1012.10
2018-06-29T07:20:44.018Z,1012.13
2018-06-29T07:21:43.996Z,1012.13
2018-06-29T07:22:43.994Z,1012.19
2018-06-29T07:23:43.985Z,1012.13
2018-06-29T07:24:43.987Z,1012.13
2018-06-29T07:25:43.955Z,1012.11
2018-06-29T07:26:44.073Z,1012.11
2018-06-29T07:27:43.979Z,1012.08
2018-06-29T07:28:43.943Z,1012.08
2018-06-29T07:29:43.933Z,1012.11
2018-06-29T07:30:43.925Z,1012.08
2018-06-29T07:31:43.944Z,1012.08
2018-06-29T07:32:43.965Z,1012.02
2018-06-29T07:33:43.941Z,1012.04
2018-06-29T07:34:43.911Z,1012.04
2018-06-29T07:35:43.928Z,1011.97
2018-06-29T07:36:43.898Z,1011.99
2018-06-29T07:37:43.999Z,1011.98
2018-06-29T07:38:43.934Z,1011.99
2018-06-29T07:39:43.911Z,1012.00
2018-06-29T07:40:43.906Z,1012.00
2018-06-29T07:41:43.926Z,1011.95
2018-06-29T07:42:43.898Z,1011.90
2018-06-29T07:43:43.868Z,1011.91
2018-06-29T07:44:43.865Z,1011.90
2018-06-29T07:45:43.853Z,1011.82
2018-06-29T07:46:43.880Z,1011.78
2018-06-29T07:47:43.859Z,1011.75
2018-06-29T07:48:43.847Z,1011.79
2018-06-29T07:49:43.926Z,1011.72
2018-06-29T07:50:43.844Z,1011.71
2018-06-29T07:51:43.851Z,1011.72
2018-06-29T07:52:43.847Z,1011.68
2018-06-29T07:53:43.849Z,1011.69
2018-06-29T07:54:43.860Z,1011.64
2018-06-29T07:55:43.850Z,1011.65
2018-06-29T07:56:43.823Z,1011.61
2018-06-29T07:57:43.822Z,1011.60
2018-06-29T07:58:44.617Z,1011.58
2018-06-29T07:59:43.818Z,1011.61
2018-06-29T08:00:43.822Z,1011.59
2018-06-29T08:01:43.833Z,1011.59
2018-06-29T08:02:43.929Z,1011.47
2018-06-29T08:03:43.802Z,1011.51
2018-06-29T08:04:43.803Z,1011.51
2018-06-29T08:05:43.810Z,1011.46
2018-06-29T08:06:43.794Z,1011.45
2018-06-29T08:07:43.807Z,1011.43
2018-06-29T08:08:43.914Z,1011.40
2018-06-29T08:09:43.924Z,1011.39
2018-06-29T08:10:43.886Z,1011.37
2018-06-29T08:11:43.822Z,1011.34
2018-06-29T08:12:43.783Z,1011.34
2018-06-29T08:13:43.783Z,1011.32
2018-06-29T08:14:43.798Z,1011.33
2018-06-29T08:15:43.803Z,1011.29
2018-06-29T08:16:43.827Z,1011.31
2018-06-29T08:17:43.783Z,1011.29
2018-06-29T08:18:43.828Z,1011.26
2018-06-29T08:19:43.842Z,1011.31
2018-06-29T08:20:43.803Z,1011.27
2018-06-29T08:21:43.788Z,1011.29
2018-06-29T08:22:43.762Z,1011.28
2018-06-29T08:23:43.792Z,1011.25
2018-06-29T08:24:43.794Z,1011.25
2018-06-29T08:25:43.766Z,1011.23
2018-06-29T08:26:43.769Z,1011.20
2018-06-29T08:27:43.782Z,1011.21
2018-06-29T08:28:43.744Z,1011.14
2018-06-29T08:29:43.768Z,1011.12
2018-06-29T08:30:43.741Z,1011.14
2018-06-29T08:31:43.730Z,1011.14
2018-06-29T08:32:43.769Z,1011.09
2018-06-29T08:33:43.729Z,1011.06
2018-06-29T08:34:43.755Z,1011.07
2018-06-29T08:35:43.731Z,1011.08
2018-06-29T08:36:43.735Z,1011.13
2018-06-29T08:37:43.767Z,1011.14
2018-06-29T08:38:43.747Z,1011.12
2018-06-29T08:39:43.704Z,1011.11
2018-06-29T08:40:43.712Z,1011.17
2018-06-29T08:41:43.707Z,1011.10
2018-06-29T08:42:43.724Z,1011.09
2018-06-29T08:43:43.686Z,1011.12
2018-06-29T08:44:43.745Z,1011.11
2018-06-29T08:45:43.688Z,1011.06
2018-06-29T08:46:43.727Z,1011.05
2018-06-29T08:47:43.665Z,1011.12
2018-06-29T08:48:43.662Z,1011.09
2018-06-29T08:49:43.725Z,1011.09
2018-06-29T08:50:43.658Z,1011.08
2018-06-29T08:51:43.643Z,1011.09
2018-06-29T08:52:43.719Z,1011.08
2018-06-29T08:53:43.635Z,1011.07
2018-06-29T08:54:43.609Z,1011.08
2018-06-29T08:55:43.661Z,1011.06
2018-06-29T08:56:43.681Z,1011.10
2018-06-29T08:57:43.620Z,1011.08
2018-06-29T08:58:43.577Z,1011.07
2018-06-29T08:59:43.568Z,1011.07
2018-06-29T09:00:43.565Z,1011.06
2018-06-29T09:01:43.547Z,1011.02
2018-06-29T09:02:43.554Z,1011.04
2018-06-29T09:03:43.552Z,1011.04
2018-06-29T09:04:43.542Z,1011.07
2018-06-29T09:05:43.573Z,1011.08
2018-06-29T09:06:43.532Z,1011.02
2018-06-29T09:07:43.557Z,1011.06
2018-06-29T09:08:43.489Z,1010.98
2018-06-29T09:09:43.480Z,1011.01
2018-06-29T09:10:43.506Z,1010.99
2018-06-29T09:11:43.485Z,1010.97
2018-06-29T09:12:43.459Z,1010.98
2018-06-29T09:13:43.454Z,1010.96
2018-06-29T09:14:43.495Z,1010.96
2018-06-29T09:15:43.494Z,1010.97
2018-06-29T09:16:43.437Z,1010.96
2018-06-29T09:17:43.455Z,1011.04
2018-06-29T09:18:43.414Z,1010.97
2018-06-29T09:19:43.417Z,1010.99
2018-06-29T09:20:43.389Z,1010.98
2018-06-29T09:21:43.386Z,1011.00
2018-06-29T09:22:43.385Z,1011.01
2018-06-29T09:23:43.384Z,1011.01
2018-06-29T09:24:43.380Z,1010.95
2018-06-29T09:25:43.384Z,1010.97
2018-06-29T09:26:43.349Z,1010.95
2018-06-29T09:27:43.347Z,1010.94
2018-06-29T09:28:43.333Z,1010.93
2018-06-29T09:29:43.347Z,1010.87
2018-06-29T09:30:43.353Z,1010.84
2018-06-29T09:31:43.339Z,1010.81
2018-06-29T09:32:43.389Z,1010.81
2018-06-29T09:33:43.415Z,1010.83
2018-06-29T09:34:43.281Z,1010.80
2018-06-29T09:35:43.275Z,1010.78
2018-06-29T09:36:43.320Z,1010.74
2018-06-29T09:37:43.281Z,1010.83
2018-06-29T09:38:43.263Z,1010.78
2018-06-29T09:39:43.244Z,1010.87
2018-06-29T09:40:43.246Z,1010.80
2018-06-29T09:41:43.213Z,1010.80
2018-06-29T09:42:43.216Z,1010.84
2018-06-29T09:43:43.228Z,1010.81
2018-06-29T09:44:43.202Z,1010.81
2018-06-29T09:45:43.181Z,1010.72
2018-06-29T09:46:43.179Z,1010.74
2018-06-29T09:47:43.205Z,1010.76
2018-06-29T09:48:43.164Z,1010.80
2018-06-29T09:49:43.152Z,1010.78
2018-06-29T09:50:43.147Z,1010.77
2018-06-29T09:51:43.148Z,1010.75
2018-06-29T09:52:43.134Z,1010.71
2018-06-29T09:53:43.110Z,1010.73
2018-06-29T09:54:43.182Z,1010.66
2018-06-29T09:55:43.192Z,1010.66
2018-06-29T09:56:43.194Z,1010.67
2018-06-29T09:57:43.116Z,1010.66
2018-06-29T09:58:43.080Z,1010.68
2018-06-29T09:59:43.094Z,1010.62
2018-06-29T10:00:43.098Z,1010.60
2018-06-29T10:01:43.077Z,1010.52
2018-06-29T10:02:43.051Z,1010.49
2018-06-29T10:03:43.058Z,1010.47
2018-06-29T10:04:43.025Z,1010.46
2018-06-29T10:05:43.033Z,1010.51
2018-06-29T10:06:43.027Z,1010.50
2018-06-29T10:07:43.074Z,1010.47
2018-06-29T10:08:43.013Z,1010.55
2018-06-29T10:09:43.001Z,1010.56
2018-06-29T10:10:43.033Z,1010.55
2018-06-29T10:11:43.037Z,1010.55
2018-06-29T10:12:42.971Z,1010.55
2018-06-29T10:13:42.955Z,1010.54
2018-06-29T10:14:42.953Z,1010.47
2018-06-29T10:15:42.948Z,1010.44
2018-06-29T10:16:42.952Z,1010.47
2018-06-29T10:17:42.922Z,1010.50
2018-06-29T10:18:43.046Z,1010.47
2018-06-29T10:19:42.988Z,1010.48
2018-06-29T10:20:42.923Z,1010.48
2018-06-29T10:21:42.886Z,1010.50
2018-06-29T10:22:42.899Z,1010.47
2018-06-29T10:23:42.873Z,1010.40
2018-06-29T10:24:42.915Z,1010.40
2018-06-29T10:25:42.858Z,1010.38
2018-06-29T10:26:42.858Z,1010.39
2018-06-29T10:27:42.881Z,1010.39
2018-06-29T10:28:42.844Z,1010.33
2018-06-29T10:29:42.831Z,1010.32
2018-06-29T10:30:42.839Z,1010.35
2018-06-29T10:31:42.833Z,1010.28
2018-06-29T10:32:42.800Z,1010.32
2018-06-29T10:33:42.808Z,1010.34
2018-06-29T10:34:42.844Z,1010.33
2018-06-29T10:35:42.835Z,1010.33
2018-06-29T10:36:42.806Z,1010.32
2018-06-29T10:37:42.828Z,1010.29
2018-06-29T10:38:42.837Z,1010.31
2018-06-29T10:39:42.768Z,1010.26
2018-06-29T10:40:42.787Z,1010.29
2018-06-29T10:41:42.768Z,1010.27
2018-06-29T10:42:42.782Z,1010.22
2018-06-29T10:43:42.711Z,1010.24
2018-06-29T10:44:42.777Z,1010.28
2018-06-29T10:45:42.763Z,1010.26
2018-06-29T10:46:42.704Z,1010.22
2018-06-29T10:47:42.694Z,1010.19
2018-06-29T10:48:42.683Z,1010.11
2018-06-29T10:49:42.707Z,1010.16
2018-06-29T10:50:42.679Z,1010.19
2018-06-29T10:51:42.646Z,1010.16
2018-06-29T10:52:42.660Z,1010.18
2018-06-29T10:53:42.630Z,1010.18
2018-06-29T10:54:42.639Z,1010.17
2018-06-29T10:55:42.623Z,1010.12
2018-06-29T10:56:42.611Z,1010.18
2018-06-29T10:57:42.624Z,1010.11
2018-06-29T10:58:42.662Z,1010.12
2018-06-29T10:59:42.652Z,1010.12
2018-06-29T11:00:42.588Z,1010.08
2018-06-29T11:01:42.589Z,1010.09
2018-06-29T11:02:42.620Z,1010.14
2018-06-29T11:03:42.572Z,1010.13
2018-06-29T11:04:42.565Z,1010.05
2018-06-29T11:05:42.593Z,1010.02
2018-06-29T11:06:42.554Z,1010.05
2018-06-29T11:07:42.558Z,1010.03
2018-06-29T11:08:42.519Z,1009.97
2018-06-29T11:09:42.510Z,1010.07
2018-06-29T11:10:42.532Z,1010.00
2018-06-29T11:11:42.543Z,1009.96
2018-06-29T11:12:42.504Z,1009.95
2018-06-29T11:13:42.524Z,1009.91
2018-06-29T11:14:42.467Z,1009.99
2018-06-29T11:15:42.517Z,1009.90
2018-06-29T11:16:42.566Z,1009.92
2018-06-29T11:17:42.488Z,1009.96
2018-06-29T11:18:42.485Z,1009.96
2018-06-29T11:19:42.435Z,1009.93
2018-06-29T11:20:42.436Z,1009.90
2018-06-29T11:21:42.455Z,1010.00
2018-06-29T11:22:42.454Z,1009.91
2018-06-29T11:23:42.406Z,1009.95
2018-06-29T11:24:42.517Z,1009.87
2018-06-29T11:25:42.497Z,1009.93
2018-06-29T11:26:42.427Z,1009.93
2018-06-29T11:27:42.388Z,1009.91
2018-06-29T11:28:42.370Z,1009.88
2018-06-29T11:29:42.359Z,1009.78
2018-06-29T11:30:42.397Z,1009.85
2018-06-29T11:31:42.375Z,1009.82
2018-06-29T11:32:42.393Z,1009.83
2018-06-29T11:33:42.330Z,1009.80
2018-06-29T11:34:42.334Z,1009.78
2018-06-29T11:35:42.354Z,1009.80
2018-06-29T11:36:42.381Z,1009.90
2018-06-29T11:37:42.300Z,1009.79
2018-06-29T11:38:42.313Z,1009.80
2018-06-29T11:39:42.281Z,1009.76
2018-06-29T11:40:42.274Z,1009.79
2018-06-29T11:41:42.281Z,1009.79
2018-06-29T11:42:42.330Z,1009.82
2018-06-29T11:43:42.289Z,1009.81
2018-06-29T11:44:42.253Z,1009.76
2018-06-29T11:45:42.255Z,1009.72
2018-06-29T11:46:42.240Z,1009.72
2018-06-29T11:47:42.216Z,1009.72
2018-06-29T11:48:42.277Z,1009.79
2018-06-29T11:49:42.214Z,1009.74
2018-06-29T11:50:42.241Z,1009.76
2018-06-29T11:51:42.214Z,1009.76
2018-06-29T11:52:42.187Z,1009.68
2018-06-29T11:53:42.184Z,1009.71
2018-06-29T11:54:42.187Z,1009.72
2018-06-29T11:55:42.241Z,1009.71
2018-06-29T11:56:42.154Z,1009.66
2018-06-29T11:57:42.146Z,1009.81
2018-06-29T11:58:42.143Z,1009.61
2018-06-29T11:59:42.133Z,1009.66
2018-06-29T12:00:42.155Z,1009.67
2018-06-29T12:01:42.122Z,1009.68
2018-06-29T12:02:42.133Z,1009.67
2018-06-29T12:03:42.108Z,1009.71
2018-06-29T12:04:42.139Z,1009.66
2018-06-29T12:05:42.080Z,1009.68